sensor_id;sensor_type;location;lat;lon;timestamp;P1;durP1;ratioP1;P2;durP2;ratioP2
62957;SDS011;49056;48.352;10.926;2022-09-02T00:05:01;0.90;;;0.62;;
62957;SDS011;49056;48.352;10.926;2022-09-02T00:10:21;2.60;;;0.97;;
62957;SDS011;49056;48.352;10.926;2022-09-02T00:15:42;1.48;;;1.08;;
62957;SDS011;49056;48.352;10.926;2022-09-02T00:21:03;1.08;;;0.80;;
62957;SDS011;49056;48.352;10.926;2022-09-02T00:26:24;1.42;;;1.00;;
62957;SDS011;49056;48.352;10.926;2022-09-02T00:31:45;1.27;;;0.73;;
62957;SDS011;49056;48.352;10.926;2022-09-02T00:37:07;1.70;;;0.90;;
62957;SDS011;49056;48.352;10.926;2022-09-02T00:42:28;1.42;;;0.80;;
62957;SDS011;49056;48.352;10.926;2022-09-02T00:47:49;1.17;;;0.88;;
62957;SDS011;49056;48.352;10.926;2022-09-02T00:53:11;1.65;;;0.95;;
62957;SDS011;49056;48.352;10.926;2022-09-02T00:58:32;1.02;;;0.85;;
62957;SDS011;49056;48.352;10.926;2022-09-02T01:03:54;1.77;;;0.85;;
62957;SDS011;49056;48.352;10.926;2022-09-02T01:09:14;1.12;;;0.80;;
62957;SDS011;49056;48.352;10.926;2022-09-02T01:14:38;1.42;;;0.90;;
62957;SDS011;49056;48.352;10.926;2022-09-02T01:20:00;1.00;;;0.88;;
62957;SDS011;49056;48.352;10.926;2022-09-02T01:25:23;1.08;;;0.70;;
62957;SDS011;49056;48.352;10.926;2022-09-02T01:30:48;1.35;;;0.90;;
62957;SDS011;49056;48.352;10.926;2022-09-02T01:36:09;1.37;;;0.95;;
62957;SDS011;49056;48.352;10.926;2022-09-02T01:41:30;1.35;;;0.88;;
62957;SDS011;49056;48.352;10.926;2022-09-02T01:46:50;1.23;;;0.85;;
62957;SDS011;49056;48.352;10.926;2022-09-02T01:52:11;1.27;;;0.77;;
62957;SDS011;49056;48.352;10.926;2022-09-02T01:57:34;1.77;;;0.95;;
62957;SDS011;49056;48.352;10.926;2022-09-02T02:02:54;1.87;;;1.15;;
62957;SDS011;49056;48.352;10.926;2022-09-02T02:08:15;1.65;;;1.10;;
62957;SDS011;49056;48.352;10.926;2022-09-02T02:13:37;2.17;;;1.10;;
62957;SDS011;49056;48.352;10.926;2022-09-02T02:18:58;1.50;;;0.95;;
62957;SDS011;49056;48.352;10.926;2022-09-02T02:24:18;1.70;;;1.10;;
62957;SDS011;49056;48.352;10.926;2022-09-02T02:29:40;0.98;;;0.85;;
62957;SDS011;49056;48.352;10.926;2022-09-02T02:35:02;1.55;;;1.00;;
62957;SDS011;49056;48.352;10.926;2022-09-02T02:40:23;1.33;;;0.88;;
62957;SDS011;49056;48.352;10.926;2022-09-02T02:45:43;1.92;;;1.00;;
62957;SDS011;49056;48.352;10.926;2022-09-02T02:51:04;1.20;;;0.88;;
62957;SDS011;49056;48.352;10.926;2022-09-02T02:56:25;2.40;;;1.10;;
62957;SDS011;49056;48.352;10.926;2022-09-02T03:01:45;0.90;;;0.80;;
62957;SDS011;49056;48.352;10.926;2022-09-02T03:07:06;1.37;;;0.80;;
62957;SDS011;49056;48.352;10.926;2022-09-02T03:12:26;1.13;;;0.90;;
62957;SDS011;49056;48.352;10.926;2022-09-02T03:17:47;1.42;;;0.90;;
62957;SDS011;49056;48.352;10.926;2022-09-02T03:23:07;2.80;;;0.90;;
62957;SDS011;49056;48.352;10.926;2022-09-02T03:28:28;1.05;;;0.80;;
62957;SDS011;49056;48.352;10.926;2022-09-02T03:33:48;2.07;;;1.00;;
62957;SDS011;49056;48.352;10.926;2022-09-02T03:39:10;2.12;;;1.08;;
62957;SDS011;49056;48.352;10.926;2022-09-02T03:44:31;1.30;;;1.05;;
62957;SDS011;49056;48.352;10.926;2022-09-02T03:49:53;1.52;;;1.02;;
62957;SDS011;49056;48.352;10.926;2022-09-02T03:55:14;2.35;;;1.12;;
62957;SDS011;49056;48.352;10.926;2022-09-02T04:00:34;1.77;;;1.17;;
62957;SDS011;49056;48.352;10.926;2022-09-02T04:05:55;2.47;;;1.52;;
62957;SDS011;49056;48.352;10.926;2022-09-02T04:11:16;1.57;;;1.07;;
62957;SDS011;49056;48.352;10.926;2022-09-02T04:16:37;2.17;;;1.00;;
62957;SDS011;49056;48.352;10.926;2022-09-02T04:21:57;1.95;;;1.52;;
62957;SDS011;49056;48.352;10.926;2022-09-02T04:27:18;2.65;;;1.50;;
62957;SDS011;49056;48.352;10.926;2022-09-02T04:32:38;1.80;;;1.27;;
62957;SDS011;49056;48.352;10.926;2022-09-02T04:37:59;1.13;;;0.73;;
62957;SDS011;49056;48.352;10.926;2022-09-02T04:43:19;1.98;;;1.12;;
62957;SDS011;49056;48.352;10.926;2022-09-02T04:48:42;1.75;;;1.10;;
62957;SDS011;49056;48.352;10.926;2022-09-02T04:54:02;2.25;;;1.05;;
62957;SDS011;49056;48.352;10.926;2022-09-02T04:59:23;1.62;;;0.90;;
62957;SDS011;49056;48.352;10.926;2022-09-02T05:04:43;1.25;;;0.90;;
62957;SDS011;49056;48.352;10.926;2022-09-02T05:10:04;2.20;;;1.13;;
62957;SDS011;49056;48.352;10.926;2022-09-02T05:15:25;1.80;;;0.85;;
62957;SDS011;49056;48.352;10.926;2022-09-02T05:20:45;1.95;;;0.98;;
62957;SDS011;49056;48.352;10.926;2022-09-02T05:26:06;1.43;;;0.97;;
62957;SDS011;49056;48.352;10.926;2022-09-02T05:31:27;1.85;;;1.40;;
62957;SDS011;49056;48.352;10.926;2022-09-02T05:36:48;2.40;;;1.15;;
62957;SDS011;49056;48.352;10.926;2022-09-02T05:42:08;1.98;;;1.37;;
62957;SDS011;49056;48.352;10.926;2022-09-02T05:47:28;2.55;;;1.30;;
62957;SDS011;49056;48.352;10.926;2022-09-02T05:52:49;2.27;;;1.40;;
62957;SDS011;49056;48.352;10.926;2022-09-02T05:58:10;2.03;;;1.17;;
62957;SDS011;49056;48.352;10.926;2022-09-02T06:03:30;1.73;;;1.00;;
62957;SDS011;49056;48.352;10.926;2022-09-02T06:08:51;2.37;;;1.10;;
62957;SDS011;49056;48.352;10.926;2022-09-02T06:14:13;2.10;;;1.42;;
62957;SDS011;49056;48.352;10.926;2022-09-02T06:19:34;1.75;;;1.20;;
62957;SDS011;49056;48.352;10.926;2022-09-02T06:24:54;2.03;;;1.52;;
62957;SDS011;49056;48.352;10.926;2022-09-02T06:30:14;1.98;;;1.30;;
62957;SDS011;49056;48.352;10.926;2022-09-02T06:35:36;1.70;;;1.10;;
62957;SDS011;49056;48.352;10.926;2022-09-02T06:40:56;1.50;;;0.95;;
62957;SDS011;49056;48.352;10.926;2022-09-02T06:46:18;2.00;;;1.10;;
62957;SDS011;49056;48.352;10.926;2022-09-02T06:51:40;1.62;;;1.00;;
62957;SDS011;49056;48.352;10.926;2022-09-02T06:57:01;2.17;;;1.27;;
62957;SDS011;49056;48.352;10.926;2022-09-02T07:02:22;2.08;;;1.23;;
62957;SDS011;49056;48.352;10.926;2022-09-02T07:07:42;1.33;;;0.93;;
62957;SDS011;49056;48.352;10.926;2022-09-02T07:13:05;1.45;;;1.00;;
62957;SDS011;49056;48.352;10.926;2022-09-02T07:18:26;1.90;;;1.08;;
62957;SDS011;49056;48.352;10.926;2022-09-02T07:23:47;2.90;;;1.10;;
62957;SDS011;49056;48.352;10.926;2022-09-02T07:29:08;2.77;;;1.23;;
62957;SDS011;49056;48.352;10.926;2022-09-02T07:34:28;3.47;;;0.93;;
62957;SDS011;49056;48.352;10.926;2022-09-02T07:39:50;1.85;;;1.10;;
62957;SDS011;49056;48.352;10.926;2022-09-02T07:45:13;3.40;;;1.37;;
62957;SDS011;49056;48.352;10.926;2022-09-02T07:50:33;2.20;;;1.30;;
62957;SDS011;49056;48.352;10.926;2022-09-02T07:55:55;2.60;;;1.00;;
62957;SDS011;49056;48.352;10.926;2022-09-02T08:01:15;1.30;;;0.83;;
62957;SDS011;49056;48.352;10.926;2022-09-02T08:06:35;1.62;;;1.10;;
62957;SDS011;49056;48.352;10.926;2022-09-02T08:11:57;0.98;;;0.70;;
62957;SDS011;49056;48.352;10.926;2022-09-02T08:17:17;1.13;;;0.83;;
62957;SDS011;49056;48.352;10.926;2022-09-02T08:22:37;0.97;;;0.47;;
62957;SDS011;49056;48.352;10.926;2022-09-02T08:27:58;1.27;;;0.73;;
62957;SDS011;49056;48.352;10.926;2022-09-02T08:33:18;0.85;;;0.68;;
62957;SDS011;49056;48.352;10.926;2022-09-02T08:38:38;0.73;;;0.60;;
62957;SDS011;49056;48.352;10.926;2022-09-02T08:43:59;0.90;;;0.68;;
62957;SDS011;49056;48.352;10.926;2022-09-02T08:49:28;1.08;;;0.45;;
62957;SDS011;49056;48.352;10.926;2022-09-02T08:54:51;0.73;;;0.50;;
62957;SDS011;49056;48.352;10.926;2022-09-02T09:00:14;1.17;;;0.80;;
62957;SDS011;49056;48.352;10.926;2022-09-02T09:11:20;1.25;;;0.70;;
62957;SDS011;49056;48.352;10.926;2022-09-02T09:16:47;0.60;;;0.50;;
62957;SDS011;49056;48.352;10.926;2022-09-02T09:22:11;1.00;;;0.60;;
62957;SDS011;49056;48.352;10.926;2022-09-02T09:27:33;1.10;;;0.50;;
62957;SDS011;49056;48.352;10.926;2022-09-02T09:32:54;1.00;;;0.63;;
62957;SDS011;49056;48.352;10.926;2022-09-02T09:38:16;2.65;;;0.70;;
62957;SDS011;49056;48.352;10.926;2022-09-02T09:43:46;1.70;;;0.90;;
62957;SDS011;49056;48.352;10.926;2022-09-02T09:49:08;0.50;;;0.45;;
62957;SDS011;49056;48.352;10.926;2022-09-02T09:54:30;0.40;;;0.40;;
62957;SDS011;49056;48.352;10.926;2022-09-02T09:59:50;0.70;;;0.50;;
62957;SDS011;49056;48.352;10.926;2022-09-02T10:05:18;0.40;;;0.40;;
62957;SDS011;49056;48.352;10.926;2022-09-02T10:22:09;0.40;;;0.28;;
62957;SDS011;49056;48.352;10.926;2022-09-02T10:38:34;0.77;;;0.50;;
62957;SDS011;49056;48.352;10.926;2022-09-02T10:43:58;0.75;;;0.40;;
62957;SDS011;49056;48.352;10.926;2022-09-02T11:00:20;0.52;;;0.40;;
62957;SDS011;49056;48.352;10.926;2022-09-02T11:05:42;0.95;;;0.40;;
62957;SDS011;49056;48.352;10.926;2022-09-02T11:16:32;1.08;;;0.40;;
62957;SDS011;49056;48.352;10.926;2022-09-02T11:22:02;0.75;;;0.30;;
62957;SDS011;49056;48.352;10.926;2022-09-02T11:27:31;0.68;;;0.45;;
62957;SDS011;49056;48.352;10.926;2022-09-02T11:33:17;0.75;;;0.30;;
62957;SDS011;49056;48.352;10.926;2022-09-02T11:38:42;0.37;;;0.30;;
62957;SDS011;49056;48.352;10.926;2022-09-02T11:55:24;0.30;;;0.30;;
62957;SDS011;49056;48.352;10.926;2022-09-02T12:06:17;1.23;;;0.40;;
62957;SDS011;49056;48.352;10.926;2022-09-02T12:11:45;0.45;;;0.45;;
62957;SDS011;49056;48.352;10.926;2022-09-02T12:17:07;0.40;;;0.30;;
62957;SDS011;49056;48.352;10.926;2022-09-02T12:22:31;0.62;;;0.35;;
62957;SDS011;49056;48.352;10.926;2022-09-02T12:33:34;0.65;;;0.30;;
62957;SDS011;49056;48.352;10.926;2022-09-02T12:38:55;0.50;;;0.40;;
62957;SDS011;49056;48.352;10.926;2022-09-02T12:55:40;0.87;;;0.57;;
62957;SDS011;49056;48.352;10.926;2022-09-02T13:01:08;0.40;;;0.40;;
62957;SDS011;49056;48.352;10.926;2022-09-02T13:17:21;0.50;;;0.32;;
62957;SDS011;49056;48.352;10.926;2022-09-02T13:34:04;0.55;;;0.30;;
62957;SDS011;49056;48.352;10.926;2022-09-02T13:39:26;0.85;;;0.50;;
62957;SDS011;49056;48.352;10.926;2022-09-02T13:44:47;0.93;;;0.40;;
62957;SDS011;49056;48.352;10.926;2022-09-02T13:50:07;0.37;;;0.28;;
62957;SDS011;49056;48.352;10.926;2022-09-02T13:55:29;0.55;;;0.45;;
62957;SDS011;49056;48.352;10.926;2022-09-02T14:00:50;0.52;;;0.30;;
62957;SDS011;49056;48.352;10.926;2022-09-02T14:06:11;0.62;;;0.40;;
62957;SDS011;49056;48.352;10.926;2022-09-02T14:11:36;0.47;;;0.30;;
62957;SDS011;49056;48.352;10.926;2022-09-02T14:17:16;1.77;;;0.60;;
62957;SDS011;49056;48.352;10.926;2022-09-02T14:22:37;0.77;;;0.60;;
62957;SDS011;49056;48.352;10.926;2022-09-02T14:27:58;0.57;;;0.40;;
62957;SDS011;49056;48.352;10.926;2022-09-02T14:33:35;1.40;;;0.30;;
62957;SDS011;49056;48.352;10.926;2022-09-02T14:39:07;0.35;;;0.32;;
62957;SDS011;49056;48.352;10.926;2022-09-02T14:44:29;0.30;;;0.30;;
62957;SDS011;49056;48.352;10.926;2022-09-02T14:49:53;0.57;;;0.40;;
62957;SDS011;49056;48.352;10.926;2022-09-02T15:00:58;2.20;;;0.60;;
62957;SDS011;49056;48.352;10.926;2022-09-02T15:06:18;0.62;;;0.50;;
62957;SDS011;49056;48.352;10.926;2022-09-02T15:11:40;1.98;;;0.75;;
62957;SDS011;49056;48.352;10.926;2022-09-02T15:17:01;0.85;;;0.40;;
62957;SDS011;49056;48.352;10.926;2022-09-02T15:22:22;2.05;;;0.52;;
62957;SDS011;49056;48.352;10.926;2022-09-02T15:27:42;0.63;;;0.40;;
62957;SDS011;49056;48.352;10.926;2022-09-02T15:33:03;0.62;;;0.32;;
62957;SDS011;49056;48.352;10.926;2022-09-02T15:38:24;0.55;;;0.32;;
62957;SDS011;49056;48.352;10.926;2022-09-02T15:43:45;0.20;;;0.20;;
62957;SDS011;49056;48.352;10.926;2022-09-02T15:49:07;1.42;;;0.60;;
62957;SDS011;49056;48.352;10.926;2022-09-02T15:54:28;0.52;;;0.32;;
62957;SDS011;49056;48.352;10.926;2022-09-02T15:59:50;0.65;;;0.30;;
62957;SDS011;49056;48.352;10.926;2022-09-02T16:05:11;0.28;;;0.22;;
62957;SDS011;49056;48.352;10.926;2022-09-02T16:10:35;0.85;;;0.40;;
62957;SDS011;49056;48.352;10.926;2022-09-02T16:15:59;0.90;;;0.52;;
62957;SDS011;49056;48.352;10.926;2022-09-02T16:21:20;0.52;;;0.40;;
62957;SDS011;49056;48.352;10.926;2022-09-02T16:26:41;1.15;;;0.60;;
62957;SDS011;49056;48.352;10.926;2022-09-02T16:32:01;1.03;;;0.40;;
62957;SDS011;49056;48.352;10.926;2022-09-02T16:37:22;0.80;;;0.40;;
62957;SDS011;49056;48.352;10.926;2022-09-02T16:42:42;1.15;;;0.50;;
62957;SDS011;49056;48.352;10.926;2022-09-02T16:48:03;0.77;;;0.40;;
62957;SDS011;49056;48.352;10.926;2022-09-02T16:53:24;0.45;;;0.45;;
62957;SDS011;49056;48.352;10.926;2022-09-02T16:58:44;0.70;;;0.30;;
62957;SDS011;49056;48.352;10.926;2022-09-02T17:04:05;0.57;;;0.40;;
62957;SDS011;49056;48.352;10.926;2022-09-02T17:09:25;1.42;;;0.47;;
62957;SDS011;49056;48.352;10.926;2022-09-02T17:14:47;0.70;;;0.30;;
62957;SDS011;49056;48.352;10.926;2022-09-02T17:20:07;0.50;;;0.30;;
62957;SDS011;49056;48.352;10.926;2022-09-02T17:25:29;1.17;;;0.60;;
62957;SDS011;49056;48.352;10.926;2022-09-02T17:30:50;0.40;;;0.40;;
62957;SDS011;49056;48.352;10.926;2022-09-02T17:36:10;0.73;;;0.43;;
62957;SDS011;49056;48.352;10.926;2022-09-02T17:41:31;0.35;;;0.35;;
62957;SDS011;49056;48.352;10.926;2022-09-02T17:47:11;0.68;;;0.40;;
62957;SDS011;49056;48.352;10.926;2022-09-02T17:52:32;0.75;;;0.50;;
62957;SDS011;49056;48.352;10.926;2022-09-02T17:57:58;0.60;;;0.50;;
62957;SDS011;49056;48.352;10.926;2022-09-02T18:09:01;0.75;;;0.40;;
62957;SDS011;49056;48.352;10.926;2022-09-02T18:14:37;0.70;;;0.52;;
62957;SDS011;49056;48.352;10.926;2022-09-02T18:31:27;0.43;;;0.43;;
62957;SDS011;49056;48.352;10.926;2022-09-02T18:47:52;0.57;;;0.57;;
62957;SDS011;49056;48.352;10.926;2022-09-02T18:53:13;1.05;;;0.57;;
62957;SDS011;49056;48.352;10.926;2022-09-02T19:04:08;1.23;;;0.73;;
62957;SDS011;49056;48.352;10.926;2022-09-02T19:09:28;0.82;;;0.47;;
62957;SDS011;49056;48.352;10.926;2022-09-02T19:14:48;1.03;;;0.60;;
62957;SDS011;49056;48.352;10.926;2022-09-02T19:20:09;1.23;;;0.60;;
62957;SDS011;49056;48.352;10.926;2022-09-02T19:25:30;0.80;;;0.60;;
62957;SDS011;49056;48.352;10.926;2022-09-02T19:30:54;0.62;;;0.40;;
62957;SDS011;49056;48.352;10.926;2022-09-02T19:36:16;0.68;;;0.60;;
62957;SDS011;49056;48.352;10.926;2022-09-02T19:41:38;0.43;;;0.22;;
62957;SDS011;49056;48.352;10.926;2022-09-02T19:46:59;0.82;;;0.62;;
62957;SDS011;49056;48.352;10.926;2022-09-02T19:52:20;0.77;;;0.40;;
62957;SDS011;49056;48.352;10.926;2022-09-02T19:57:41;0.80;;;0.60;;
62957;SDS011;49056;48.352;10.926;2022-09-02T20:03:01;0.82;;;0.40;;
62957;SDS011;49056;48.352;10.926;2022-09-02T20:08:24;0.70;;;0.47;;
62957;SDS011;49056;48.352;10.926;2022-09-02T20:13:49;0.73;;;0.40;;
62957;SDS011;49056;48.352;10.926;2022-09-02T20:19:10;1.63;;;0.70;;
62957;SDS011;49056;48.352;10.926;2022-09-02T20:24:31;0.62;;;0.45;;
62957;SDS011;49056;48.352;10.926;2022-09-02T20:46:33;0.52;;;0.35;;
62957;SDS011;49056;48.352;10.926;2022-09-02T20:52:01;1.17;;;0.70;;
62957;SDS011;49056;48.352;10.926;2022-09-02T21:03:04;1.58;;;0.80;;
62957;SDS011;49056;48.352;10.926;2022-09-02T21:08:33;0.75;;;0.52;;
62957;SDS011;49056;48.352;10.926;2022-09-02T21:14:07;0.77;;;0.65;;
62957;SDS011;49056;48.352;10.926;2022-09-02T21:19:40;1.52;;;0.80;;
62957;SDS011;49056;48.352;10.926;2022-09-02T21:25:14;1.62;;;0.60;;
62957;SDS011;49056;48.352;10.926;2022-09-02T21:30:39;0.85;;;0.50;;
62957;SDS011;49056;48.352;10.926;2022-09-02T21:36:01;0.90;;;0.50;;
62957;SDS011;49056;48.352;10.926;2022-09-02T21:52:33;0.98;;;0.60;;
62957;SDS011;49056;48.352;10.926;2022-09-02T21:58:19;0.83;;;0.60;;
62957;SDS011;49056;48.352;10.926;2022-09-02T22:03:47;3.85;;;0.77;;
62957;SDS011;49056;48.352;10.926;2022-09-02T22:09:09;3.83;;;0.73;;
62957;SDS011;49056;48.352;10.926;2022-09-02T22:19:53;1.02;;;0.70;;
62957;SDS011;49056;48.352;10.926;2022-09-02T22:25:17;1.75;;;0.60;;
62957;SDS011;49056;48.352;10.926;2022-09-02T22:30:42;0.62;;;0.52;;
62957;SDS011;49056;48.352;10.926;2022-09-02T22:36:07;0.77;;;0.67;;
62957;SDS011;49056;48.352;10.926;2022-09-02T22:46:57;0.90;;;0.60;;
62957;SDS011;49056;48.352;10.926;2022-09-02T22:52:38;0.65;;;0.50;;
62957;SDS011;49056;48.352;10.926;2022-09-02T22:58:51;0.85;;;0.70;;
62957;SDS011;49056;48.352;10.926;2022-09-02T23:09:24;0.82;;;0.68;;
62957;SDS011;49056;48.352;10.926;2022-09-02T23:20:34;0.57;;;0.57;;
62957;SDS011;49056;48.352;10.926;2022-09-02T23:42:23;1.90;;;0.63;;
62957;SDS011;49056;48.352;10.926;2022-09-02T23:47:55;0.70;;;0.70;;
62957;SDS011;49056;48.352;10.926;2022-09-02T23:53:29;1.08;;;0.68;;
